createdAt,value
2023-03-05T00:01:24.502Z,92513.31
2023-03-05T00:02:56.290Z,92506.06
2023-03-05T00:04:27.898Z,92504.00
2023-03-05T00:05:59.451Z,92507.28
2023-03-05T00:07:31.138Z,92511.53
2023-03-05T00:09:02.990Z,92503.50
2023-03-05T00:10:34.560Z,92500.84
2023-03-05T00:12:06.895Z,92498.75
2023-03-05T00:13:38.556Z,92499.00
2023-03-05T00:15:10.199Z,92493.47
2023-03-05T00:16:41.774Z,92497.22
2023-03-05T00:18:13.254Z,92488.13
2023-03-05T00:19:44.786Z,92493.97
2023-03-05T00:21:23.637Z,92502.78
2023-03-05T00:22:55.266Z,92500.97
2023-03-05T00:24:27.064Z,92491.88
2023-03-05T00:26:01.168Z,92498.00
2023-03-05T00:27:33.145Z,92492.09
2023-03-05T00:29:04.954Z,92490.72
2023-03-05T00:30:36.612Z,92494.69
2023-03-05T00:32:08.269Z,92486.97
2023-03-05T00:33:40.433Z,92487.31
2023-03-05T00:35:12.750Z,92486.84
2023-03-05T00:36:45.741Z,92481.00
2023-03-05T00:38:17.442Z,92493.88
2023-03-05T00:39:49.102Z,92487.44
2023-03-05T00:41:20.668Z,92486.34
2023-03-05T00:42:52.143Z,92482.09
2023-03-05T00:44:26.163Z,92477.03
2023-03-05T00:45:58.504Z,92478.41
2023-03-05T00:47:31.505Z,92470.19
2023-03-05T00:49:04.418Z,92471.28
2023-03-05T00:50:40.677Z,92471.59
2023-03-05T00:52:12.950Z,92468.91
2023-03-05T00:53:44.570Z,92471.59
2023-03-05T00:55:16.252Z,92471.88
2023-03-05T00:56:49.346Z,92468.69
2023-03-05T00:58:21.406Z,92466.03
2023-03-05T00:59:52.903Z,92462.56
2023-03-05T01:01:24.608Z,92459.59
2023-03-05T01:02:56.120Z,92463.56
2023-03-05T01:04:27.691Z,92466.13
2023-03-05T01:05:59.418Z,92467.44
2023-03-05T01:07:30.956Z,92458.63
2023-03-05T01:09:02.460Z,92461.78
2023-03-05T01:10:34.330Z,92467.94
2023-03-05T01:12:06.050Z,92463.66
2023-03-05T01:13:37.753Z,92457.53
2023-03-05T01:15:10.165Z,92465.53
2023-03-05T01:16:42.368Z,92456.81
2023-03-05T01:18:17.294Z,92458.81
2023-03-05T01:19:49.553Z,92453.88
2023-03-05T01:21:22.498Z,92457.91
2023-03-05T01:22:56.805Z,92452.28
2023-03-05T01:24:30.059Z,92455.13
2023-03-05T01:26:04.132Z,92462.78
2023-03-05T01:27:35.907Z,92456.94
2023-03-05T01:29:09.144Z,92459.69
2023-03-05T01:30:45.409Z,92452.16
2023-03-05T01:32:17.343Z,92463.91
2023-03-05T01:33:54.211Z,92449.63
2023-03-05T01:35:34.446Z,92449.22
2023-03-05T01:37:06.325Z,92456.91
2023-03-05T01:38:38.255Z,92463.03
2023-03-05T01:40:10.751Z,92454.69
2023-03-05T01:41:42.251Z,92452.97
2023-03-05T01:43:13.932Z,92452.91
2023-03-05T01:45:01.358Z,92445.09
2023-03-05T01:46:37.092Z,92445.09
2023-03-05T01:48:08.640Z,92451.53
2023-03-05T01:49:40.198Z,92450.75
2023-03-05T01:51:11.691Z,92447.47
2023-03-05T01:52:44.325Z,92451.72
2023-03-05T01:54:16.032Z,92453.31
2023-03-05T01:55:47.638Z,92449.56
2023-03-05T01:57:23.326Z,92449.56
2023-03-05T01:59:01.272Z,92450.63
2023-03-05T02:01:05.544Z,92442.13
2023-03-05T02:02:53.758Z,92440.06
2023-03-05T02:04:32.390Z,92439.84
2023-03-05T02:06:09.271Z,92437.47
2023-03-05T02:07:50.638Z,92437.97
2023-03-05T02:09:28.717Z,92440.94
2023-03-05T02:11:04.534Z,92442.00
2023-03-05T02:12:36.106Z,92436.47
2023-03-05T02:14:10.119Z,92427.47
2023-03-05T02:15:42.176Z,92431.00
2023-03-05T02:17:13.747Z,92428.63
2023-03-05T02:18:45.401Z,92426.47
2023-03-05T02:20:21.504Z,92431.72
2023-03-05T02:21:53.168Z,92433.22
2023-03-05T02:23:28.568Z,92427.28
2023-03-05T02:25:00.843Z,92431.25
2023-03-05T02:26:32.469Z,92419.78
2023-03-05T02:28:06.407Z,92434.41
2023-03-05T02:29:37.900Z,92418.69
2023-03-05T02:31:10.497Z,92430.47
2023-03-05T02:32:42.082Z,92430.94
2023-03-05T02:34:13.669Z,92422.16
2023-03-05T02:35:47.062Z,92431.25
2023-03-05T02:37:30.150Z,92435.31
2023-03-05T02:39:11.031Z,92432.69
2023-03-05T02:40:57.928Z,92431.50
2023-03-05T02:42:34.760Z,92432.38
2023-03-05T02:44:06.507Z,92428.44
2023-03-05T02:45:38.313Z,92435.16
2023-03-05T02:47:09.877Z,92428.81
2023-03-05T02:48:42.066Z,92424.53
2023-03-05T02:50:13.812Z,92435.22
2023-03-05T02:51:45.332Z,92431.97
2023-03-05T02:53:16.977Z,92433.56
2023-03-05T02:54:48.505Z,92429.88
2023-03-05T02:56:20.029Z,92429.59
2023-03-05T02:57:51.518Z,92425.63
2023-03-05T02:59:23.172Z,92431.25
2023-03-05T03:00:54.734Z,92430.69
2023-03-05T03:02:26.331Z,92430.91
2023-03-05T03:03:57.877Z,92424.25
2023-03-05T03:05:29.545Z,92434.94
2023-03-05T03:07:01.276Z,92426.13
2023-03-05T03:08:32.823Z,92434.88
2023-03-05T03:10:04.720Z,92429.41
2023-03-05T03:11:36.257Z,92436.56
2023-03-05T03:13:07.761Z,92432.19
2023-03-05T03:14:39.810Z,92435.47
2023-03-05T03:16:12.598Z,92433.97
2023-03-05T03:17:44.584Z,92430.03
2023-03-05T03:19:16.638Z,92438.31
2023-03-05T03:20:48.131Z,92431.59
2023-03-05T03:22:19.716Z,92429.72
2023-03-05T03:23:51.383Z,92434.25
2023-03-05T03:25:23.792Z,92431.59
2023-03-05T03:26:55.855Z,92436.06
2023-03-05T03:28:27.350Z,92431.22
2023-03-05T03:30:02.765Z,92430.72
2023-03-05T03:31:34.999Z,92430.72
2023-03-05T03:33:12.909Z,92429.63
2023-03-05T03:34:50.955Z,92434.41
2023-03-05T03:36:27.985Z,92423.22
2023-03-05T03:38:05.027Z,92429.63
2023-03-05T03:39:47.314Z,92429.34
2023-03-05T03:41:19.507Z,92424.00
2023-03-05T03:42:53.724Z,92423.22
2023-03-05T03:44:25.592Z,92428.03
2023-03-05T03:45:57.197Z,92424.09
2023-03-05T03:47:29.303Z,92427.34
2023-03-05T03:49:01.180Z,92426.06
2023-03-05T03:50:32.722Z,92430.91
2023-03-05T03:52:04.404Z,92425.56
2023-03-05T03:53:36.450Z,92420.50
2023-03-05T03:55:08.265Z,92424.25
2023-03-05T03:56:40.305Z,92422.66
2023-03-05T03:58:11.858Z,92423.16
2023-03-05T03:59:45.890Z,92424.97
2023-03-05T04:01:17.562Z,92431.41
2023-03-05T04:02:49.226Z,92421.22
2023-03-05T04:04:20.837Z,92430.31
2023-03-05T04:05:52.396Z,92429.31
2023-03-05T04:07:25.627Z,92430.38
2023-03-05T04:09:02.651Z,92432.56
2023-03-05T04:10:34.228Z,92428.81
2023-03-05T04:12:06.210Z,92433.63
2023-03-05T04:13:38.454Z,92432.38
2023-03-05T04:15:10.965Z,92429.38
2023-03-05T04:16:42.501Z,92432.03
2023-03-05T04:18:13.967Z,92433.91
2023-03-05T04:19:45.532Z,92424.34
2023-03-05T04:21:17.042Z,92438.50
2023-03-05T04:22:48.567Z,92429.19
2023-03-05T04:24:20.121Z,92432.16
2023-03-05T04:25:51.955Z,92421.75
2023-03-05T04:27:23.878Z,92429.75
2023-03-05T04:28:55.479Z,92426.81
2023-03-05T04:30:27.013Z,92420.97
2023-03-05T04:31:58.580Z,92422.63
2023-03-05T04:33:30.102Z,92418.06
2023-03-05T04:35:01.893Z,92418.47
2023-03-05T04:36:33.539Z,92411.31
2023-03-05T04:38:05.392Z,92414.78
2023-03-05T04:39:37.299Z,92413.41
2023-03-05T04:41:08.868Z,92414.72
2023-03-05T04:42:40.394Z,92409.72
2023-03-05T04:44:11.946Z,92411.91
2023-03-05T04:45:43.719Z,92410.91
2023-03-05T04:47:15.651Z,92415.53
2023-03-05T04:48:47.144Z,92410.84
2023-03-05T04:50:18.802Z,92407.19
2023-03-05T04:51:50.556Z,92406.88
2023-03-05T04:53:22.111Z,92421.50
2023-03-05T04:54:54.476Z,92412.22
2023-03-05T04:56:26.349Z,92403.41
2023-03-05T04:57:57.913Z,92405.50
2023-03-05T04:59:29.410Z,92409.06
2023-03-05T05:01:04.388Z,92409.69
2023-03-05T05:02:37.272Z,92407.81
2023-03-05T05:04:11.651Z,92411.50
2023-03-05T05:05:46.987Z,92414.69
2023-03-05T05:07:37.329Z,92408.34
2023-03-05T05:09:09.439Z,92417.00
2023-03-05T05:10:41.624Z,92411.16
2023-03-05T05:12:13.267Z,92420.47
2023-03-05T05:13:44.904Z,92415.13
2023-03-05T05:15:16.893Z,92420.75
2023-03-05T05:16:49.471Z,92422.91
2023-03-05T05:18:21.508Z,92419.94
2023-03-05T05:19:53.243Z,92421.81
2023-03-05T05:21:25.050Z,92423.41
2023-03-05T05:22:56.765Z,92430.63
2023-03-05T05:24:28.526Z,92426.13
2023-03-05T05:26:00.744Z,92434.66
2023-03-05T05:27:32.597Z,92420.47
2023-03-05T05:29:08.312Z,92426.66
2023-03-05T05:30:40.878Z,92431.97
2023-03-05T05:32:12.847Z,92431.00
2023-03-05T05:33:49.804Z,92432.34
2023-03-05T05:35:22.183Z,92425.94
2023-03-05T05:36:54.138Z,92433.19
2023-03-05T05:38:26.397Z,92441.72
2023-03-05T05:39:58.101Z,92436.38
2023-03-05T05:41:29.907Z,92441.47
2023-03-05T05:43:01.548Z,92431.03
2023-03-05T05:44:36.115Z,92448.13
2023-03-05T05:46:10.049Z,92449.19
2023-03-05T05:47:46.447Z,92440.91
2023-03-05T05:49:19.602Z,92443.28
2023-03-05T05:50:51.478Z,92443.00
2023-03-05T05:52:23.578Z,92441.13
2023-03-05T05:53:55.782Z,92441.94
2023-03-05T05:55:30.302Z,92444.00
2023-03-05T05:57:05.817Z,92443.53
2023-03-05T05:58:43.447Z,92442.72
2023-03-05T06:00:21.947Z,92442.72
2023-03-05T06:01:58.877Z,92449.72
2023-03-05T06:03:38.736Z,92449.44
2023-03-05T06:05:17.317Z,92451.22
2023-03-05T06:07:06.986Z,92454.38
2023-03-05T06:08:48.834Z,92448.53
2023-03-05T06:10:21.467Z,92455.47
2023-03-05T06:11:53.098Z,92453.81
2023-03-05T06:13:26.791Z,92455.63
2023-03-05T06:14:58.489Z,92456.34
2023-03-05T06:16:30.940Z,92462.97
2023-03-05T06:18:02.948Z,92454.69
2023-03-05T06:19:35.991Z,92461.34
2023-03-05T06:21:08.813Z,92461.91
2023-03-05T06:22:40.754Z,92456.06
2023-03-05T06:24:13.142Z,92456.84
2023-03-05T06:25:45.170Z,92464.00
2023-03-05T06:27:17.461Z,92462.84
2023-03-05T06:28:49.893Z,92468.97
2023-03-05T06:30:21.914Z,92466.00
2023-03-05T06:31:54.207Z,92454.16
2023-03-05T06:33:26.616Z,92461.59
2023-03-05T06:34:58.771Z,92462.09
2023-03-05T06:36:30.768Z,92465.56
2023-03-05T06:38:02.945Z,92469.81
2023-03-05T06:39:34.770Z,92470.91
2023-03-05T06:41:09.654Z,92471.19
2023-03-05T06:42:41.490Z,92466.88
2023-03-05T06:44:13.608Z,92469.16
2023-03-05T06:45:45.759Z,92472.63
2023-03-05T06:47:17.982Z,92473.66
2023-03-05T06:48:49.991Z,92483.13
2023-03-05T06:50:21.970Z,92475.34
2023-03-05T06:51:53.556Z,92483.25
2023-03-05T06:53:25.558Z,92478.22
2023-03-05T06:54:57.604Z,92478.53
2023-03-05T06:56:29.543Z,92464.41
2023-03-05T06:58:01.148Z,92480.19
2023-03-05T06:59:32.691Z,92475.06
2023-03-05T07:01:07.408Z,92475.19
2023-03-05T07:02:39.033Z,92475.69
2023-03-05T07:04:11.341Z,92476.19
2023-03-05T07:05:43.103Z,92477.47
2023-03-05T07:07:15.231Z,92481.66
2023-03-05T07:08:47.254Z,92475.94
2023-03-05T07:10:19.666Z,92472.47
2023-03-05T07:11:51.594Z,92485.47
2023-03-05T07:13:23.381Z,92475.25
2023-03-05T07:14:55.373Z,92486.25
2023-03-05T07:16:27.704Z,92483.16
2023-03-05T07:17:59.906Z,92483.94
2023-03-05T07:19:32.291Z,92482.28
2023-03-05T07:21:04.938Z,92484.34
2023-03-05T07:22:37.365Z,92484.06
2023-03-05T07:24:09.226Z,92487.25
2023-03-05T07:25:40.884Z,92484.50
2023-03-05T07:27:12.511Z,92483.13
2023-03-05T07:28:44.163Z,92488.56
2023-03-05T07:30:16.687Z,92481.84
2023-03-05T07:31:48.870Z,92483.72
2023-03-05T07:33:20.541Z,92485.00
2023-03-05T07:34:52.757Z,92485.50
2023-03-05T07:36:24.556Z,92486.69
2023-03-05T07:37:56.479Z,92491.94
2023-03-05T07:39:28.392Z,92488.91
2023-03-05T07:41:26.056Z,92492.03
2023-03-05T07:42:57.692Z,92482.75
2023-03-05T07:44:29.379Z,92488.09
2023-03-05T07:46:03.822Z,92480.78
2023-03-05T07:47:35.950Z,92486.31
2023-03-05T07:49:07.877Z,92488.41
2023-03-05T07:50:39.750Z,92484.03
2023-03-05T07:52:11.470Z,92482.09
2023-03-05T07:53:44.192Z,92482.59
2023-03-05T07:55:16.730Z,92482.66
2023-03-05T07:56:49.022Z,92489.09
2023-03-05T07:58:20.779Z,92486.94
2023-03-05T07:59:52.576Z,92490.59
2023-03-05T08:01:24.452Z,92487.59
2023-03-05T08:02:57.061Z,92495.25
2023-03-05T08:04:32.184Z,92489.03
2023-03-05T08:06:05.739Z,92480.25
2023-03-05T08:07:37.392Z,92484.19
2023-03-05T08:09:09.118Z,92484.38
2023-03-05T08:10:40.709Z,92491.03
2023-03-05T08:12:12.232Z,92489.44
2023-03-05T08:13:44.053Z,92485.06
2023-03-05T08:15:15.958Z,92485.47
2023-03-05T08:16:49.750Z,92491.22
2023-03-05T08:18:21.796Z,92484.78
2023-03-05T08:19:58.084Z,92482.69
2023-03-05T08:21:32.054Z,92486.94
2023-03-05T08:23:04.343Z,92488.53
2023-03-05T08:24:36.269Z,92487.44
2023-03-05T08:26:14.792Z,92485.28
2023-03-05T08:27:46.983Z,92484.69
2023-03-05T08:29:18.641Z,92483.28
2023-03-05T08:30:50.338Z,92489.53
2023-03-05T08:32:34.917Z,92484.06
2023-03-05T08:34:08.062Z,92486.75
2023-03-05T08:35:39.962Z,92481.50
2023-03-05T08:37:12.276Z,92484.78
2023-03-05T08:38:46.949Z,92490.72
2023-03-05T08:40:18.716Z,92481.72
2023-03-05T08:41:50.754Z,92484.88
2023-03-05T08:43:22.574Z,92482.69
2023-03-05T08:44:54.710Z,92476.16
2023-03-05T08:46:26.475Z,92475.38
2023-03-05T08:47:58.740Z,92467.63
2023-03-05T08:49:30.757Z,92473.38
2023-03-05T08:51:07.131Z,92479.13
2023-03-05T08:52:38.863Z,92472.06
2023-03-05T08:54:10.666Z,92471.09
2023-03-05T08:55:44.190Z,92478.13
2023-03-05T08:57:16.552Z,92471.47
2023-03-05T08:58:48.801Z,92469.13
2023-03-05T09:00:21.010Z,92472.28
2023-03-05T09:01:53.424Z,92467.91
2023-03-05T09:03:25.177Z,92463.56
2023-03-05T09:04:56.953Z,92464.72
2023-03-05T09:06:29.139Z,92468.41
2023-03-05T09:08:00.938Z,92470.44
2023-03-05T09:09:33.240Z,92468.28
2023-03-05T09:11:05.426Z,92464.50
2023-03-05T09:12:37.971Z,92472.72
2023-03-05T09:14:10.208Z,92464.88
2023-03-05T09:15:41.982Z,92463.47
2023-03-05T09:17:13.889Z,92463.47
2023-03-05T09:18:45.563Z,92464.97
2023-03-05T09:20:17.602Z,92471.78
2023-03-05T09:21:49.260Z,92464.44
2023-03-05T09:23:21.057Z,92458.16
2023-03-05T09:24:53.174Z,92456.31
2023-03-05T09:26:25.139Z,92459.56
2023-03-05T09:27:57.094Z,92456.41
2023-03-05T09:29:30.146Z,92460.69
2023-03-05T09:31:02.348Z,92456.75
2023-03-05T09:32:34.084Z,92459.50
2023-03-05T09:34:06.002Z,92446.16
2023-03-05T09:35:38.396Z,92456.56
2023-03-05T09:37:10.274Z,92450.78
2023-03-05T09:38:42.528Z,92456.16
2023-03-05T09:40:15.321Z,92453.63
2023-03-05T09:41:59.070Z,92453.63
2023-03-05T09:43:41.497Z,92451.44
2023-03-05T09:45:18.865Z,92451.47
2023-03-05T09:46:54.992Z,92453.25
2023-03-05T09:48:30.687Z,92438.75
2023-03-05T09:50:08.293Z,92448.66
2023-03-05T09:51:40.722Z,92444.59
2023-03-05T09:53:12.741Z,92441.31
2023-03-05T09:54:44.990Z,92444.63
2023-03-05T09:56:17.391Z,92439.75
2023-03-05T09:57:50.074Z,92435.19
2023-03-05T09:59:28.677Z,92445.91
2023-03-05T10:01:08.113Z,92437.97
2023-03-05T10:02:41.752Z,92435.31
2023-03-05T10:04:21.571Z,92435.66
2023-03-05T10:06:02.053Z,92436.75
2023-03-05T10:07:34.339Z,92431.56
2023-03-05T10:09:05.925Z,92428.00
2023-03-05T10:10:41.150Z,92430.53
2023-03-05T10:12:14.874Z,92428.00
2023-03-05T10:13:46.752Z,92427.41
2023-03-05T10:15:24.538Z,92423.94
2023-03-05T10:16:59.028Z,92424.22
2023-03-05T10:18:33.452Z,92420.94
2023-03-05T10:20:26.598Z,92422.69
2023-03-05T10:22:01.067Z,92417.78
2023-03-05T10:23:41.813Z,92414.97
2023-03-05T10:25:24.380Z,92417.84
2023-03-05T10:26:59.995Z,92415.47
2023-03-05T10:28:35.613Z,92415.47
2023-03-05T10:30:22.813Z,92407.25
2023-03-05T10:32:16.640Z,92409.81
2023-03-05T10:33:57.392Z,92403.34
2023-03-05T10:35:47.319Z,92405.84
2023-03-05T10:37:22.026Z,92397.66
2023-03-05T10:38:57.657Z,92395.91
2023-03-05T10:40:32.687Z,92390.09
2023-03-05T10:42:13.571Z,92387.72
2023-03-05T10:43:45.841Z,92387.91
2023-03-05T10:45:18.286Z,92382.84
2023-03-05T10:46:49.832Z,92390.75
2023-03-05T10:48:39.963Z,92380.63
2023-03-05T10:50:16.294Z,92379.22
2023-03-05T10:51:49.394Z,92377.94
2023-03-05T10:53:24.594Z,92366.59
2023-03-05T10:54:56.277Z,92367.06
2023-03-05T10:56:28.457Z,92362.78
2023-03-05T10:58:01.018Z,92366.56
2023-03-05T10:59:32.805Z,92356.13
2023-03-05T11:01:04.700Z,92355.81
2023-03-05T11:02:38.388Z,92355.19
2023-03-05T11:04:25.694Z,92349.97
2023-03-05T11:06:01.876Z,92346.19
2023-03-05T11:07:34.068Z,92357.09
2023-03-05T11:09:21.927Z,92352.81
2023-03-05T11:11:12.897Z,92344.47
2023-03-05T11:12:45.179Z,92343.03
2023-03-05T11:14:24.160Z,92339.22
2023-03-05T11:16:01.462Z,92340.03
2023-03-05T11:17:34.184Z,92335.91
2023-03-05T11:19:18.678Z,92335.59
2023-03-05T11:20:50.423Z,92333.06
2023-03-05T11:22:22.540Z,92328.19
2023-03-05T11:24:09.651Z,92334.94
2023-03-05T11:25:54.813Z,92323.25
2023-03-05T11:27:30.994Z,92317.06
2023-03-05T11:29:05.358Z,92315.94
2023-03-05T11:30:37.511Z,92320.03
2023-03-05T11:32:35.656Z,92312.09
2023-03-05T11:34:19.475Z,92311.00
2023-03-05T11:35:52.796Z,92309.09
2023-03-05T11:37:25.645Z,92302.91
2023-03-05T11:39:07.001Z,92304.03
2023-03-05T11:40:38.928Z,92296.41
2023-03-05T11:42:14.166Z,92298.13
2023-03-05T11:43:46.072Z,92295.84
2023-03-05T11:45:19.162Z,92295.38
2023-03-05T11:46:56.305Z,92283.19
2023-03-05T11:48:38.290Z,92284.31
2023-03-05T11:50:13.255Z,92285.31
2023-03-05T11:52:31.989Z,92284.94
2023-03-05T11:54:10.715Z,92282.47
2023-03-05T11:55:42.700Z,92281.50
2023-03-05T11:57:15.361Z,92275.66
2023-03-05T11:58:47.417Z,92274.53
2023-03-05T12:00:24.248Z,92271.38
2023-03-05T12:01:56.670Z,92263.13
2023-03-05T12:03:32.891Z,92261.53
2023-03-05T12:05:06.240Z,92272.44
2023-03-05T12:06:42.541Z,92260.41
2023-03-05T12:08:15.523Z,92264.00
2023-03-05T12:09:50.424Z,92264.31
2023-03-05T12:11:29.604Z,92266.69
2023-03-05T12:13:01.488Z,92265.00
2023-03-05T12:14:44.858Z,92261.19
2023-03-05T12:16:16.424Z,92255.94
2023-03-05T12:17:57.392Z,92260.53
2023-03-05T12:19:36.128Z,92260.53
2023-03-05T12:21:09.352Z,92256.06
2023-03-05T12:22:44.955Z,92257.00
2023-03-05T12:24:28.334Z,92262.56
2023-03-05T12:26:05.831Z,92255.47
2023-03-05T12:27:38.130Z,92256.47
2023-03-05T12:29:26.546Z,92248.66
2023-03-05T12:30:59.570Z,92252.13
2023-03-05T12:32:35.422Z,92244.34
2023-03-05T12:34:34.693Z,92245.25
2023-03-05T12:36:22.100Z,92247.63
2023-03-05T12:37:54.520Z,92247.31
2023-03-05T12:39:45.192Z,92244.88
2023-03-05T12:41:34.577Z,92240.28
2023-03-05T12:43:06.533Z,92239.47
2023-03-05T12:44:40.133Z,92242.31
2023-03-05T12:46:25.175Z,92235.22
2023-03-05T12:47:57.012Z,92238.59
2023-03-05T12:49:29.224Z,92234.16
2023-03-05T12:51:00.874Z,92235.59
2023-03-05T12:52:33.535Z,92225.13
2023-03-05T12:54:25.512Z,92229.44
2023-03-05T12:55:58.490Z,92218.97
2023-03-05T12:57:31.800Z,92228.16
2023-03-05T12:59:04.357Z,92223.75
2023-03-05T13:00:44.840Z,92224.34
2023-03-05T13:02:21.663Z,92229.44
2023-03-05T13:03:55.047Z,92224.44
2023-03-05T13:05:31.057Z,92235.13
2023-03-05T13:07:13.365Z,92230.28
2023-03-05T13:09:01.734Z,92232.50
2023-03-05T13:10:33.864Z,92239.38
2023-03-05T13:12:10.049Z,92229.75
2023-03-05T13:13:42.618Z,92228.03
2023-03-05T13:15:14.522Z,92227.09
2023-03-05T13:16:46.461Z,92228.22
2023-03-05T13:18:27.865Z,92224.41
2023-03-05T13:20:00.242Z,92227.75
2023-03-05T13:21:32.718Z,92227.44
2023-03-05T13:23:10.010Z,92223.38
2023-03-05T13:24:41.875Z,92231.59
2023-03-05T13:26:16.046Z,92226.53
2023-03-05T13:27:47.749Z,92228.44
2023-03-05T13:29:20.461Z,92226.41
2023-03-05T13:30:56.780Z,92225.31
2023-03-05T13:32:29.415Z,92220.75
2023-03-05T13:34:08.333Z,92229.34
2023-03-05T13:35:40.180Z,92229.34
2023-03-05T13:37:18.739Z,92226.81
2023-03-05T13:38:50.374Z,92232.03
2023-03-05T13:40:29.296Z,92224.81
2023-03-05T13:42:08.419Z,92228.00
2023-03-05T13:43:46.561Z,92232.91
2023-03-05T13:45:24.816Z,92228.31
2023-03-05T13:47:09.918Z,92234.81
2023-03-05T13:48:41.791Z,92231.31
2023-03-05T13:50:28.727Z,92229.28
2023-03-05T13:52:00.980Z,92233.25
2023-03-05T13:53:32.974Z,92227.88
2023-03-05T13:55:05.434Z,92225.81
2023-03-05T13:56:37.379Z,92233.09
2023-03-05T13:58:28.919Z,92227.88
2023-03-05T14:00:01.193Z,92230.38
2023-03-05T14:01:40.975Z,92228.94
2023-03-05T14:03:18.389Z,92223.25
2023-03-05T14:04:50.119Z,92226.41
2023-03-05T14:06:22.271Z,92219.94
2023-03-05T14:07:54.065Z,92226.09
2023-03-05T14:09:25.827Z,92224.53
2023-03-05T14:10:57.746Z,92221.06
2023-03-05T14:12:37.168Z,92221.25
2023-03-05T14:14:10.315Z,92226.78
2023-03-05T14:15:42.135Z,92221.13
2023-03-05T14:17:30.368Z,92223.31
2023-03-05T14:19:03.530Z,92220.66
2023-03-05T14:20:35.276Z,92220.97
2023-03-05T14:22:06.978Z,92222.84
2023-03-05T14:23:43.392Z,92221.44
2023-03-05T14:25:35.163Z,92223.50
2023-03-05T14:27:08.780Z,92227.47
2023-03-05T14:28:41.120Z,92229.53
2023-03-05T14:30:15.138Z,92229.22
2023-03-05T14:31:53.860Z,92225.41
2023-03-05T14:33:27.095Z,92223.84
2023-03-05T14:34:59.652Z,92219.44
2023-03-05T14:36:31.730Z,92225.09
2023-03-05T14:38:03.627Z,92230.78
2023-03-05T14:39:38.175Z,92220.84
2023-03-05T14:41:19.501Z,92219.44
2023-03-05T14:42:58.726Z,92223.06
2023-03-05T14:44:30.931Z,92222.91
2023-03-05T14:46:02.481Z,92218.00
2023-03-05T14:47:34.173Z,92214.22
2023-03-05T14:49:06.120Z,92214.38
2023-03-05T14:50:43.668Z,92213.75
2023-03-05T14:52:16.265Z,92214.53
2023-03-05T14:53:48.145Z,92221.00
2023-03-05T14:55:21.592Z,92235.22
2023-03-05T14:56:53.572Z,92215.63
2023-03-05T14:58:26.500Z,92221.31
2023-03-05T14:59:58.128Z,92222.75
2023-03-05T15:01:29.871Z,92217.06
2023-03-05T15:03:01.971Z,92210.13
2023-03-05T15:04:33.764Z,92216.91
2023-03-05T15:06:05.429Z,92221.97
2023-03-05T15:07:37.275Z,92222.59
2023-03-05T15:09:10.834Z,92222.28
2023-03-05T15:10:42.591Z,92224.66
2023-03-05T15:12:14.801Z,92217.88
2023-03-05T15:13:46.507Z,92222.78
2023-03-05T15:15:18.779Z,92221.97
2023-03-05T15:16:50.976Z,92219.63
2023-03-05T15:18:23.229Z,92215.66
2023-03-05T15:20:01.078Z,92214.09
2023-03-05T15:21:33.003Z,92219.31
2023-03-05T15:23:04.807Z,92211.56
2023-03-05T15:24:36.837Z,92210.00
2023-03-05T15:26:09.169Z,92210.00
2023-03-05T15:27:41.122Z,92209.69
2023-03-05T15:29:13.095Z,92217.41
2023-03-05T15:30:45.628Z,92215.03
2023-03-05T15:32:17.425Z,92208.59
2023-03-05T15:33:49.404Z,92212.38
2023-03-05T15:35:21.896Z,92208.41
2023-03-05T15:36:53.763Z,92214.41
2023-03-05T15:38:25.563Z,92211.41
2023-03-05T15:39:57.280Z,92217.88
2023-03-05T15:41:29.053Z,92213.47
2023-03-05T15:43:00.749Z,92215.50
2023-03-05T15:44:32.559Z,92221.69
2023-03-05T15:46:10.018Z,92221.97
2023-03-05T15:47:42.466Z,92212.94
2023-03-05T15:49:14.780Z,92226.19
2023-03-05T15:50:46.967Z,92224.78
2023-03-05T15:52:18.815Z,92230.75
2023-03-05T15:53:50.335Z,92228.25
2023-03-05T15:55:22.241Z,92230.25
2023-03-05T15:56:54.119Z,92222.53
2023-03-05T15:58:26.252Z,92226.16
2023-03-05T15:59:58.012Z,92227.72
2023-03-05T16:01:30.351Z,92224.69
2023-03-05T16:03:02.050Z,92229.88
2023-03-05T16:04:33.666Z,92219.78
2023-03-05T16:06:05.680Z,92230.03
2023-03-05T16:07:37.785Z,92224.81
2023-03-05T16:09:09.932Z,92226.06
2023-03-05T16:10:41.683Z,92224.13
2023-03-05T16:12:15.168Z,92226.47
2023-03-05T16:13:47.300Z,92223.13
2023-03-05T16:15:19.474Z,92219.50
2023-03-05T16:16:51.488Z,92222.81
2023-03-05T16:18:23.241Z,92220.28
2023-03-05T16:19:55.130Z,92224.66
2023-03-05T16:21:26.725Z,92220.09
2023-03-05T16:22:58.717Z,92218.81
2023-03-05T16:24:30.531Z,92225.25
2023-03-05T16:26:02.135Z,92227.44
2023-03-05T16:27:33.808Z,92227.00
2023-03-05T16:29:05.450Z,92223.81
2023-03-05T16:30:38.257Z,92224.44
2023-03-05T16:32:09.999Z,92231.66
2023-03-05T16:33:41.829Z,92221.09
2023-03-05T16:35:13.839Z,92226.28
2023-03-05T16:36:49.174Z,92225.59
2023-03-05T16:38:20.935Z,92230.81
2023-03-05T16:39:52.614Z,92230.97
2023-03-05T16:41:24.940Z,92228.47
2023-03-05T16:42:56.899Z,92231.03
2023-03-05T16:44:29.001Z,92226.94
2023-03-05T16:46:02.010Z,92230.56
2023-03-05T16:47:34.290Z,92240.00
2023-03-05T16:49:06.540Z,92235.59
2023-03-05T16:50:38.068Z,92240.31
2023-03-05T16:52:18.823Z,92236.53
2023-03-05T16:53:51.184Z,92248.03
2023-03-05T16:55:22.786Z,92235.88
2023-03-05T16:56:54.771Z,92241.34
2023-03-05T16:58:26.452Z,92244.78
2023-03-05T16:59:58.663Z,92252.47
2023-03-05T17:01:30.571Z,92257.31
2023-03-05T17:03:02.162Z,92257.72
2023-03-05T17:04:33.831Z,92258.94
2023-03-05T17:06:09.053Z,92264.91
2023-03-05T17:07:40.602Z,92264.25
2023-03-05T17:09:12.681Z,92261.88
2023-03-05T17:10:44.252Z,92259.78
2023-03-05T17:12:16.478Z,92268.41
2023-03-05T17:13:49.028Z,92262.28
2023-03-05T17:15:20.925Z,92266.34
2023-03-05T17:16:52.738Z,92276.72
2023-03-05T17:18:24.753Z,92275.16
2023-03-05T17:19:56.367Z,92278.16
2023-03-05T17:21:27.938Z,92280.03
2023-03-05T17:23:02.298Z,92279.31
2023-03-05T17:24:33.836Z,92281.19
2023-03-05T17:26:09.491Z,92276.44
2023-03-05T17:27:41.206Z,92281.03
2023-03-05T17:29:12.732Z,92283.00
2023-03-05T17:30:44.384Z,92281.72
2023-03-05T17:32:15.986Z,92282.50
2023-03-05T17:33:47.735Z,92286.56
2023-03-05T17:35:20.431Z,92289.06
2023-03-05T17:36:52.063Z,92287.78
2023-03-05T17:38:23.750Z,92287.28
2023-03-05T17:39:55.349Z,92288.19
2023-03-05T17:41:27.054Z,92287.78
2023-03-05T17:42:58.720Z,92287.00
2023-03-05T17:44:30.338Z,92296.31
2023-03-05T17:46:02.126Z,92295.50
2023-03-05T17:47:36.123Z,92296.09
2023-03-05T17:49:08.351Z,92300.94
2023-03-05T17:50:40.436Z,92291.19
2023-03-05T17:52:11.908Z,92301.47
2023-03-05T17:53:43.665Z,92303.75
2023-03-05T17:55:15.984Z,92304.16
2023-03-05T17:56:48.425Z,92299.69
2023-03-05T17:58:20.005Z,92307.19
2023-03-05T17:59:52.145Z,92321.47
2023-03-05T18:01:24.773Z,92319.66
2023-03-05T18:02:56.433Z,92313.53
2023-03-05T18:04:28.070Z,92313.72
2023-03-05T18:05:59.742Z,92320.25
2023-03-05T18:07:31.425Z,92311.47
2023-03-05T18:09:02.965Z,92323.28
2023-03-05T18:10:34.592Z,92322.78
2023-03-05T18:12:06.333Z,92327.34
2023-03-05T18:13:38.010Z,92328.75
2023-03-05T18:15:10.647Z,92329.91
2023-03-05T18:16:42.244Z,92325.34
2023-03-05T18:18:16.745Z,92331.19
2023-03-05T18:19:48.665Z,92331.19
2023-03-05T18:21:21.024Z,92337.09
2023-03-05T18:22:52.891Z,92333.66
2023-03-05T18:24:24.514Z,92342.56